^^
Grace C. Lehan Memorial Weather Station Historical Data
Daily Summary for July 18, 2021 Units:  English    Metric   Both
Daily Weekly Monthly Yearly
  High: Low: Average:
Temperature: 47.4 °F 31.9 °F 39.4 °F
Dew Point: 34.1 °F 23.9 °F 30.3 °F
Humidity: 85% 51% 70%
Wind Speed: 9.9mph 0mph 1.8mph
Wind Gust: 19mph - -
Wind- - WSW
Pressure: 29.87 in 29.61 in -
Precipitation: 0.00 in    
 
 
Tabular Data for July 18, 2021
Time Temperature Dew Point Pressure Wind Wind Speed Wind Gust Humidity Rainfall Rate (Hourly) solar
00:04 40.8 °F 30 °F 29.62 in SW 3.7 mph 9 mph 65% 0.00 in 0 W/m2
00:09 40.8 °F 30 °F 29.62 in SW 1.2 mph 6 mph 65% 0.00 in 0 W/m2
00:14 40.8 °F 30.1 °F 29.62 in SW 2 mph 6 mph 65.5% 0.00 in 0 W/m2
00:19 40.8 °F 30.2 °F 29.62 in SW 1.7 mph 7 mph 65.5% 0.00 in 0 W/m2
00:24 40.8 °F 30.3 °F 29.62 in SW 2.2 mph 7 mph 66% 0.00 in 0 W/m2
00:29 40.8 °F 30.3 °F 29.62 in SW 1.3 mph 7 mph 66% 0.00 in 0 W/m2
00:34 40.8 °F 30.3 °F 29.62 in SW 1.8 mph 7 mph 66% 0.00 in 0 W/m2
00:39 40.8 °F 30.3 °F 29.62 in SW 1.6 mph 7 mph 66% 0.00 in 0 W/m2
00:44 40.8 °F 30.3 °F 29.62 in SW 1.3 mph 7 mph 66% 0.00 in 0 W/m2
00:49 40.8 °F 30.3 °F 29.62 in SW 1.4 mph 7 mph 66% 0.00 in 0 W/m2
00:54 40.7 °F 30.4 °F 29.62 in SW 1.6 mph 7 mph 66.3% 0.00 in 0 W/m2
00:59 40.7 °F 30.3 °F 29.62 in SW 1.6 mph 9 mph 66% 0.00 in 0 W/m2
01:04 40.8 °F 30.4 °F 29.62 in SW 1.5 mph 9 mph 66.3% 0.00 in 0 W/m2
01:09 40.8 °F 30.7 °F 29.62 in SW 0.9 mph 7 mph 67% 0.00 in 0 W/m2
01:14 40.8 °F 30.7 °F 29.62 in SW 0.7 mph 7 mph 67% 0.00 in 0 W/m2
01:19 40.7 °F 30.6 °F 29.62 in SW 1.8 mph 7 mph 67% 0.00 in 0 W/m2
01:24 40.7 °F 30.6 °F 29.62 in SW 0.9 mph 7 mph 67% 0.00 in 0 W/m2
01:29 40.7 °F 30.6 °F 29.62 in SW 1.6 mph 7 mph 67% 0.00 in 0 W/m2
01:34 40.7 °F 30.6 °F 29.62 in SW 0.7 mph 7 mph 67% 0.00 in 0 W/m2
01:39 40.7 °F 30.6 °F 29.62 in SW 0.7 mph 4 mph 67% 0.00 in 0 W/m2
01:44 40.7 °F 30.6 °F 29.62 in SW 0.4 mph 4 mph 67% 0.00 in 0 W/m2
01:49 40.6 °F 30.5 °F 29.62 in SW 0.6 mph 4 mph 67% 0.00 in 0 W/m2
01:54 40.6 °F 30.5 °F 29.62 in SW 1.3 mph 5 mph 67% 0.00 in 0 W/m2
01:59 40.5 °F 30.4 °F 29.61 in WSW 0.8 mph 5 mph 67% 0.00 in 0 W/m2
02:04 40.4 °F 30.3 °F 29.61 in WSW 0.6 mph 5 mph 67% 0.00 in 0 W/m2
02:09 40.2 °F 30.3 °F 29.61 in WSW 0.5 mph 2 mph 67.5% 0.00 in 0 W/m2
02:14 40 °F 30.2 °F 29.61 in WSW 0.3 mph 3 mph 67.7% 0.00 in 0 W/m2
02:19 39.8 °F 30.1 °F 29.62 in Calm   3 mph 68% 0.00 in 0 W/m2
02:24 39.6 °F 29.9 °F 29.62 in SW 0.7 mph 3 mph 68% 0.00 in 0 W/m2
02:29 39.5 °F 30.2 °F 29.62 in SW 1 mph 5 mph 69% 0.00 in 0 W/m2
02:34 39.4 °F 30.1 °F 29.62 in SW 0.4 mph 5 mph 69% 0.00 in 0 W/m2
02:39 39.3 °F 30 °F 29.62 in SW 0.9 mph 3 mph 69% 0.00 in 0 W/m2
02:44 39.3 °F 30 °F 29.61 in SW 0.7 mph 3 mph 69% 0.00 in 0 W/m2
02:49 39.2 °F 29.9 °F 29.62 in SW 0.8 mph 3 mph 69% 0.00 in 0 W/m2
02:54 39.2 °F 30 °F 29.62 in SW 0.6 mph 3 mph 69.4% 0.00 in 0 W/m2
02:59 39.2 °F 30.2 °F 29.62 in SW 0.2 mph 3 mph 70% 0.00 in 0 W/m2
03:04 39.2 °F 30.2 °F 29.62 in SW 0.8 mph 3 mph 70% 0.00 in 0 W/m2
03:09 39.2 °F 30.3 °F 29.62 in SW 1 mph 4 mph 70% 0.00 in 0 W/m2
03:14 39.2 °F 30.2 °F 29.62 in SW 1.3 mph 4 mph 70% 0.00 in 0 W/m2
03:19 39.1 °F 30.2 °F 29.62 in SW 2.1 mph 5 mph 70% 0.00 in 0 W/m2
03:24 39 °F 30.1 °F 29.62 in SW 2.5 mph 10 mph 70% 0.00 in 0 W/m2
03:29 39 °F 30 °F 29.62 in SW 2.1 mph 10 mph 70% 0.00 in 0 W/m2
03:34 38.9 °F 30.2 °F 29.62 in SW 0.8 mph 10 mph 70.7% 0.00 in 0 W/m2
03:39 38.8 °F 30.2 °F 29.62 in SW 2.7 mph 8 mph 71% 0.00 in 0 W/m2
03:44 38.7 °F 30.1 °F 29.62 in SW 1.6 mph 9 mph 71% 0.00 in 0 W/m2
03:49 38.6 °F 30.2 °F 29.61 in WSW 1.8 mph 9 mph 71.5% 0.00 in 0 W/m2
03:54 38.5 °F 30.3 °F 29.61 in SW 1.2 mph 9 mph 72% 0.00 in 0 W/m2
03:59 38.4 °F 30.1 °F 29.61 in SW 1.3 mph 10 mph 72% 0.00 in 0 W/m2
04:00 38.2 °F 30 °F 29.61 in SW 0.5 mph 10 mph 72% 0.00 in 0 W/m2
04:09 38 °F 30.2 °F 29.61 in WSW 0.4 mph 3 mph 73% 0.00 in 0 W/m2
04:14 37.9 °F 30.1 °F 29.61 in WSW 0.9 mph 5 mph 73.4% 0.00 in 0 W/m2
04:19 37.8 °F 30.2 °F 29.61 in WSW 0.7 mph 7 mph 74% 0.00 in 0 W/m2
04:24 37.7 °F 30.1 °F 29.62 in SW 0.6 mph 9 mph 74% 0.00 in 0 W/m2
04:29 37.6 °F 30.1 °F 29.61 in SW 0.3 mph 9 mph 74.1% 0.00 in 0 W/m2
04:34 37.5 °F 30.3 °F 29.61 in WSW 1 mph 9 mph 75% 0.00 in 0 W/m2
04:39 37.4 °F 30.2 °F 29.62 in WSW 0.6 mph 8 mph 75% 0.00 in 0 W/m2
04:44 37.3 °F 30.3 °F 29.62 in SW 0.8 mph 9 mph 75.5% 0.00 in 0 W/m2
04:49 37.2 °F 30.4 °F 29.62 in SW 0.7 mph 9 mph 76% 0.00 in 0 W/m2
04:54 37.2 °F 30.3 °F 29.62 in SW 1.6 mph 9 mph 76% 0.00 in 0 W/m2
04:59 37.1 °F 30.3 °F 29.62 in WSW 1.6 mph 11 mph 76% 0.00 in 0 W/m2
05:04 37.1 °F 30.5 °F 29.63 in WSW 2.3 mph 11 mph 76.9% 0.00 in 0 W/m2
05:09 37 °F 30.5 °F 29.63 in WSW 1.4 mph 9 mph 77% 0.00 in 0 W/m2
05:14 37 °F 30.5 °F 29.63 in WSW 1 mph 9 mph 77% 0.00 in 0 W/m2
05:19 36.9 °F 30.4 °F 29.63 in SW 0.6 mph 9 mph 77% 0.00 in 0 W/m2
05:24 36.8 °F 30.5 °F 29.63 in WSW 2.4 mph 9 mph 77.7% 0.00 in 0 W/m2
05:29 36.8 °F 30.6 °F 29.63 in SW 2 mph 10 mph 78% 0.00 in 0 W/m2
05:34 36.8 °F 30.6 °F 29.63 in WSW 2.1 mph 10 mph 78% 0.00 in 0 W/m2
05:39 36.8 °F 30.6 °F 29.63 in WSW 1.9 mph 11 mph 78% 0.00 in 0 W/m2
05:44 36.8 °F 30.6 °F 29.63 in WSW 1.2 mph 11 mph 78% 0.00 in 0 W/m2
05:49 36.8 °F 30.6 °F 29.63 in SW 2.3 mph 11 mph 78% 0.00 in 0 W/m2
05:54 36.8 °F 30.6 °F 29.63 in SW 1 mph 11 mph 78% 0.00 in 0 W/m2
05:59 36.8 °F 30.6 °F 29.63 in WSW 0.7 mph 11 mph 78% 0.00 in 0 W/m2
06:04 36.7 °F 30.7 °F 29.63 in WSW 1.1 mph 11 mph 78.6% 0.00 in 0 W/m2
06:09 36.6 °F 30.8 °F 29.63 in SW 1.2 mph 9 mph 79.3% 0.00 in 0 W/m2
06:14 36.6 °F 30.4 °F 29.63 in SW 0.5 mph 9 mph 78% 0.00 in 0 W/m2
06:19 36.5 °F 30.3 °F 29.63 in SW 0.4 mph 9 mph 78% 0.00 in 0 W/m2
06:24 36.4 °F 30.2 °F 29.63 in SW 1.5 mph 10 mph 78% 0.00 in 0 W/m2
06:29 36.3 °F 30.1 °F 29.63 in WSW 1 mph 10 mph 78% 0.00 in 0 W/m2
06:34 36.3 °F 30.1 °F 29.63 in SW 0.5 mph 10 mph 78% 0.00 in 0 W/m2
06:39 36.2 °F 30.1 °F 29.63 in SW 0.2 mph 4 mph 78.1% 0.00 in 0 W/m2
06:44 36.1 °F 30.3 °F 29.63 in SW 0.1 mph 4 mph 79% 0.00 in 0 W/m2
06:49 36.1 °F 30.2 °F 29.62 in SW 1.3 mph 7 mph 79% 0.00 in 0 W/m2
06:54 36.1 °F 30.2 °F 29.62 in WSW 1.1 mph 9 mph 79% 0.00 in 0 W/m2
06:59 36.1 °F 30.2 °F 29.63 in WSW 1.2 mph 10 mph 79% 0.00 in 0 W/m2
07:04 36 °F 30.2 °F 29.63 in WSW 1 mph 10 mph 79% 0.00 in 0 W/m2
07:09 36.1 °F 30.2 °F 29.63 in SW 1.5 mph 12 mph 79% 0.00 in 0 W/m2
07:14 36.1 °F 30.2 °F 29.63 in SW 1.3 mph 12 mph 79% 0.00 in 0 W/m2
07:19 36.1 °F 30.2 °F 29.63 in SW 1.1 mph 12 mph 79% 0.00 in 5 W/m2
07:24 36.1 °F 30.2 °F 29.63 in WSW 0.1 mph 12 mph 79% 0.00 in 11 W/m2
07:29 36.1 °F 30.2 °F 29.62 in WSW 0.9 mph 12 mph 78.8% 0.00 in 12 W/m2
07:34 36.2 °F 30 °F 29.62 in WSW 0.6 mph 12 mph 78% 0.00 in 12 W/m2
07:39 36.2 °F 30 °F 29.62 in WSW 0.3 mph 3 mph 78% 0.00 in 14 W/m2
07:44 36.2 °F 30 °F 29.62 in Calm   3 mph 78% 0.00 in 19 W/m2
07:49 36.2 °F 30 °F 29.63 in Calm   3 mph 78% 0.00 in 39 W/m2
07:54 36.4 °F 30.3 °F 29.63 in Calm   3 mph 78.3% 0.00 in 42 W/m2
07:59 36.6 °F 30.6 °F 29.63 in Calm   3 mph 78.7% 0.00 in 39 W/m2
08:00 36.8 °F 30.6 °F 29.63 in Calm   3 mph 78% 0.00 in 32 W/m2
08:09 37.3 °F 31.1 °F 29.63 in Calm     78% 0.00 in 69 W/m2
08:14 37.9 °F 31.4 °F 29.63 in Calm     77.1% 0.00 in 60 W/m2
08:19 38.3 °F 31.6 °F 29.64 in Calm     76.4% 0.00 in 111 W/m2
08:24 38.6 °F 31.4 °F 29.63 in Calm     75% 0.00 in 167 W/m2
08:29 39 °F 31.7 °F 29.64 in Calm     75% 0.00 in 185 W/m2
08:34 39.4 °F 31.8 °F 29.64 in WSW 0.2 mph 5 mph 73.9% 0.00 in 185 W/m2
08:39 39.6 °F 31.7 °F 29.64 in SW 0.2 mph 5 mph 73% 0.00 in 144 W/m2
08:44 39.8 °F 31.8 °F 29.64 in WSW 0.4 mph 5 mph 72.8% 0.00 in 135 W/m2
08:49 40 °F 31.6 °F 29.64 in SW 1.1 mph 5 mph 71.7% 0.00 in 204 W/m2
08:54 40.2 °F 31.9 °F 29.64 in Calm   5 mph 71.8% 0.00 in 165 W/m2
08:59 40.6 °F 32 °F 29.64 in SW 0.7 mph 5 mph 71.3% 0.00 in 135 W/m2
09:04 40.7 °F 31.7 °F 29.64 in SW 1 mph 5 mph 69.9% 0.00 in 109 W/m2
09:09 40.7 °F 31.3 °F 29.64 in SW 0.5 mph 5 mph 69% 0.00 in 91 W/m2
09:14 40.6 °F 31.3 °F 29.64 in SW 2 mph 9 mph 69% 0.00 in 137 W/m2
09:19 40.6 °F 31.3 °F 29.65 in WSW 0.2 mph 9 mph 69% 0.00 in 137 W/m2
09:24 40.7 °F 31.6 °F 29.65 in SW 0.6 mph 9 mph 69.6% 0.00 in 102 W/m2
09:29 40.7 °F 31.4 °F 29.65 in SW 0.4 mph 9 mph 69% 0.00 in 114 W/m2
09:34 40.7 °F 31.4 °F 29.66 in SW 0.5 mph 9 mph 69.3% 0.00 in 111 W/m2
09:39 40.7 °F 31.6 °F 29.66 in SW 0.7 mph 4 mph 69.7% 0.00 in 97 W/m2
09:44 40.7 °F 31.3 °F 29.66 in SW 0.8 mph 4 mph 69% 0.00 in 120 W/m2
09:49 40.7 °F 31.5 °F 29.66 in SW 0.4 mph 4 mph 69.4% 0.00 in 90 W/m2
09:54 40.8 °F 31.4 °F 29.66 in SW 0.1 mph 4 mph 69% 0.00 in 72 W/m2
09:59 40.9 °F 31.5 °F 29.66 in SW 0.8 mph 6 mph 68.8% 0.00 in 70 W/m2
10:04 40.9 °F 31.4 °F 29.66 in SW 0.2 mph 6 mph 68.5% 0.00 in 90 W/m2
10:09 41 °F 31.7 °F 29.66 in WSW 0.5 mph 4 mph 69% 0.00 in 90 W/m2
10:14 41.1 °F 31.4 °F 29.66 in WSW 2 mph 10 mph 68.1% 0.00 in 100 W/m2
10:19 41.3 °F 31.6 °F 29.65 in WSW 0.7 mph 10 mph 68% 0.00 in 167 W/m2
10:24 41.7 °F 32.2 °F 29.66 in WSW 0.1 mph 10 mph 68.7% 0.00 in 223 W/m2
10:29 42.3 °F 32.5 °F 29.66 in WSW 2 mph 12 mph 68% 0.00 in 229 W/m2
10:34 43 °F 32.6 °F 29.66 in WSW 1.3 mph 12 mph 66.5% 0.00 in 339 W/m2
10:39 43.7 °F 32.9 °F 29.66 in WSW 1.6 mph 10 mph 65.6% 0.00 in 397 W/m2
10:44 44.6 °F 33.8 °F 29.66 in WSW 1.5 mph 10 mph 65.6% 0.00 in 408 W/m2
10:49 45.5 °F 33.7 °F 29.65 in West 2.3 mph 11 mph 63.1% 0.00 in 401 W/m2
10:54 46.3 °F 33.7 °F 29.65 in West 4.7 mph 16 mph 61.2% 0.00 in 274 W/m2
10:59 46.6 °F 33.6 °F 29.65 in WSW 2 mph 16 mph 60.2% 0.00 in 229 W/m2
11:04 46.8 °F 33.6 °F 29.65 in WSW 1.6 mph 16 mph 59.8% 0.00 in 179 W/m2
11:09 46.8 °F 33.7 °F 29.64 in SW 1.5 mph 10 mph 60% 0.00 in 327 W/m2
11:14 47.1 °F 34.1 °F 29.64 in WSW 1.6 mph 10 mph 60.5% 0.00 in 267 W/m2
11:19 47.3 °F 33.7 °F 29.64 in WSW 2.4 mph 10 mph 59.1% 0.00 in 251 W/m2
11:24 47.3 °F 33.1 °F 29.64 in WSW 3.6 mph 10 mph 57.6% 0.00 in 288 W/m2
11:29 47.2 °F 33.4 °F 29.64 in WSW 2.6 mph 10 mph 58.4% 0.00 in 288 W/m2
11:34 47.2 °F 33.3 °F 29.63 in WSW 2.8 mph 10 mph 58.2% 0.00 in 139 W/m2
11:39 47.2 °F 33.1 °F 29.63 in WSW 2.5 mph 11 mph 57.8% 0.00 in 313 W/m2
11:44 47 °F 33 °F 29.63 in WSW 2.4 mph 11 mph 58% 0.00 in 329 W/m2
11:49 46.8 °F 32.7 °F 29.63 in WSW 2.2 mph 11 mph 57.8% 0.00 in 329 W/m2
11:54 46.7 °F 33.1 °F 29.62 in SW 2.2 mph 11 mph 58.9% 0.00 in 202 W/m2
11:59 46.5 °F 32.5 °F 29.62 in SW 2.6 mph 11 mph 58% 0.00 in 171 W/m2
12:00 46.4 °F 32.9 °F 29.62 in WSW 1 mph 11 mph 59% 0.00 in 139 W/m2
12:09 46.3 °F 32.6 °F 29.62 in West 0.8 mph 5 mph 58.7% 0.00 in 176 W/m2
12:14 46.1 °F 32.3 °F 29.62 in SW 2.5 mph 8 mph 58.4% 0.00 in 186 W/m2
12:19 45.9 °F 32.3 °F 29.62 in WSW 3.8 mph 11 mph 58.9% 0.00 in 188 W/m2
12:24 45.9 °F 31.9 °F 29.62 in WSW 2.7 mph 13 mph 57.8% 0.00 in 397 W/m2
12:29 46.2 °F 32 °F 29.62 in SW 3.5 mph 13 mph 57.4% 0.00 in 299 W/m2
12:34 46.7 °F 32 °F 29.61 in WSW 3.1 mph 13 mph 56.3% 0.00 in 559 W/m2
12:39 47 °F 32.2 °F 29.61 in WSW 1 mph 12 mph 56.1% 0.00 in 489 W/m2
12:44 47.3 °F 32.7 °F 29.61 in WSW 2.6 mph 12 mph 56.7% 0.00 in 278 W/m2
12:49 47.4 °F 32.2 °F 29.61 in WSW 1.6 mph 12 mph 55.3% 0.00 in 230 W/m2
12:54 47.2 °F 32.3 °F 29.61 in WSW 1.7 mph 12 mph 55.8% 0.00 in 132 W/m2
12:59 46.8 °F 31.4 °F 29.61 in WSW 2.9 mph 12 mph 54.9% 0.00 in 200 W/m2
13:04 46.4 °F 32.1 °F 29.61 in West 1.2 mph 12 mph 57.3% 0.00 in 207 W/m2
13:09 46.3 °F 31.8 °F 29.61 in SW 3.5 mph 12 mph 56.9% 0.00 in 213 W/m2
13:14 46.2 °F 31.9 °F 29.61 in WSW 2.5 mph 16 mph 57.2% 0.00 in 188 W/m2
13:19 46.1 °F 31.9 °F 29.61 in WSW 2.6 mph 16 mph 57.5% 0.00 in 232 W/m2
13:24 46 °F 31.6 °F 29.61 in WSW 2 mph 16 mph 57% 0.00 in 185 W/m2
13:29 45.8 °F 31.4 °F 29.61 in SW 2.2 mph 16 mph 56.8% 0.00 in 176 W/m2
13:34 45.7 °F 31.5 °F 29.61 in West 1.1 mph 16 mph 57.5% 0.00 in 385 W/m2
13:39 46 °F 31.9 °F 29.61 in SW 2.8 mph 7 mph 57.5% 0.00 in 257 W/m2
13:44 46.1 °F 31.4 °F 29.61 in SW 2.3 mph 13 mph 56.2% 0.00 in 237 W/m2
13:49 46.1 °F 31.5 °F 29.61 in SW 3.1 mph 18 mph 56.3% 0.00 in 439 W/m2
13:54 46.1 °F 30.4 °F 29.61 in West 5.2 mph 18 mph 54% 0.00 in 185 W/m2
13:59 45.9 °F 31 °F 29.61 in West 2 mph 18 mph 55.7% 0.00 in 176 W/m2
14:04 46 °F 31.1 °F 29.61 in SW 2 mph 18 mph 55.8% 0.00 in 260 W/m2
14:09 46.2 °F 30.2 °F 29.61 in WSW 4 mph 15 mph 53.5% 0.00 in 165 W/m2
14:14 46.1 °F 29.9 °F 29.61 in West 2.7 mph 15 mph 52.9% 0.00 in 132 W/m2
14:19 46 °F 30.3 °F 29.62 in West 2 mph 15 mph 54% 0.00 in 478 W/m2
14:24 46.1 °F 30.1 °F 29.62 in West 2.6 mph 15 mph 53.5% 0.00 in 265 W/m2
14:29 46.2 °F 30.4 °F 29.62 in WSW 2.6 mph 15 mph 53.8% 0.00 in 265 W/m2
14:34 46.3 °F 30.4 °F 29.62 in WSW 1.3 mph 15 mph 53.5% 0.00 in 216 W/m2
14:39 46.4 °F 30.4 °F 29.62 in West 4.5 mph 18 mph 53.5% 0.00 in 216 W/m2
14:44 46.3 °F 29.7 °F 29.62 in West 4.8 mph 18 mph 52% 0.00 in 76 W/m2
14:49 46.2 °F 29.9 °F 29.62 in WSW 1.3 mph 18 mph 52.8% 0.00 in 91 W/m2
14:54 46.2 °F 30.1 °F 29.62 in WSW 3.5 mph 18 mph 53.2% 0.00 in 86 W/m2
14:59 46.1 °F 29.3 °F 29.63 in WSW 4.4 mph 18 mph 51.6% 0.00 in 100 W/m2
15:04 46.1 °F 29.3 °F 29.63 in WNW 4.3 mph 18 mph 51.7% 0.00 in 100 W/m2
15:09 46 °F 29.3 °F 29.63 in WNW 5.2 mph 14 mph 51.9% 0.00 in 83 W/m2
15:14 45.9 °F 29.2 °F 29.63 in West 1.7 mph 14 mph 52% 0.00 in 107 W/m2
15:19 45.8 °F 29.5 °F 29.64 in West 2.8 mph 14 mph 52.7% 0.00 in 107 W/m2
15:24 45.8 °F 28.9 °F 29.64 in West 3.2 mph 14 mph 51.4% 0.00 in 81 W/m2
15:29 45.6 °F 28.5 °F 29.64 in West 6.1 mph 17 mph 51% 0.00 in 32 W/m2
15:34 45.3 °F 28.6 °F 29.65 in West 2.7 mph 17 mph 51.7% 0.00 in 19 W/m2
15:39 45 °F 28.7 °F 29.66 in NW 6.2 mph 17 mph 52.5% 0.00 in 23 W/m2
15:44 44.5 °F 30.9 °F 29.66 in NW 6.6 mph 17 mph 58.6% 0.00 in 32 W/m2
15:49 43.6 °F 32.4 °F 29.67 in WNW 9.9 mph 19 mph 64.4% 0.00 in 37 W/m2
15:54 42.5 °F 32.7 °F 29.67 in NW 6.9 mph 19 mph 67.9% 0.00 in 32 W/m2
15:59 41.9 °F 33.1 °F 29.67 in NW 8.1 mph 19 mph 70.9% 0.00 in 21 W/m2
16:00 41.6 °F 33.3 °F 29.67 in West 5 mph 19 mph 72% 0.00 in 19 W/m2
16:09 40.9 °F 33.4 °F 29.68 in WNW 5.1 mph 13 mph 74.5% 0.00 in 21 W/m2
16:14 40.6 °F 33.4 °F 29.68 in WNW 3 mph 13 mph 75.3% 0.00 in 16 W/m2
16:19 40.4 °F 33.5 °F 29.69 in WNW 2.5 mph 13 mph 76% 0.00 in 18 W/m2
16:24 40.3 °F 33.4 °F 29.69 in WNW 2.2 mph 13 mph 76% 0.00 in 19 W/m2
16:29 40.2 °F 33.3 °F 29.69 in WNW 2.2 mph 13 mph 76% 0.00 in 18 W/m2
16:34 40.1 °F 33.2 °F 29.69 in WNW 1.9 mph 13 mph 76% 0.00 in 12 W/m2
16:39 40 °F 33.1 °F 29.69 in West 2.7 mph 11 mph 76% 0.00 in 11 W/m2
16:44 39.9 °F 32.9 °F 29.69 in West 0.6 mph 11 mph 76% 0.00 in 9 W/m2
16:49 39.8 °F 32.9 °F 29.70 in WNW 1.7 mph 11 mph 76.2% 0.00 in 7 W/m2
16:54 39.6 °F 33 °F 29.70 in WNW 4.4 mph 11 mph 77% 0.00 in 0 W/m2
16:59 39.5 °F 32.9 °F 29.71 in WNW 2.8 mph 11 mph 77.3% 0.00 in 0 W/m2
17:04 39.3 °F 33 °F 29.71 in WNW 3.6 mph 11 mph 78% 0.00 in 0 W/m2
17:09 39.1 °F 32.9 °F 29.72 in WNW 3.8 mph 11 mph 78.1% 0.00 in 0 W/m2
17:14 39.1 °F 33.1 °F 29.72 in WNW 3.3 mph 12 mph 79% 0.00 in 0 W/m2
17:19 39 °F 33.3 °F 29.72 in WNW 4 mph 12 mph 79.7% 0.00 in 0 W/m2
17:24 38.9 °F 33.3 °F 29.72 in WNW 6.7 mph 19 mph 80.2% 0.00 in 0 W/m2
17:29 38.7 °F 33.5 °F 29.73 in West 3.6 mph 19 mph 81.4% 0.00 in 0 W/m2
17:34 38.5 °F 33.6 °F 29.73 in West 0.6 mph 19 mph 82.4% 0.00 in 0 W/m2
17:39 38.3 °F 33.6 °F 29.73 in WNW 0.6 mph 9 mph 83% 0.00 in 0 W/m2
17:44 38 °F 33.4 °F 29.73 in West 0.4 mph 9 mph 83.2% 0.00 in 0 W/m2
17:49 37.8 °F 33.4 °F 29.73 in West 0.6 mph 9 mph 84% 0.00 in 0 W/m2
17:54 37.7 °F 33.3 °F 29.74 in West 0.3 mph 9 mph 84.2% 0.00 in 0 W/m2
17:59 37.6 °F 33.5 °F 29.74 in West 0.3 mph 9 mph 85% 0.00 in 0 W/m2
18:04 37.5 °F 33.4 °F 29.74 in West 0.5 mph 9 mph 85% 0.00 in 0 W/m2
18:09 37.3 °F 33.3 °F 29.74 in West 0.2 mph 5 mph 85% 0.00 in 0 W/m2
18:14 37.2 °F 33.1 °F 29.74 in West 0.1 mph 5 mph 85% 0.00 in 0 W/m2
18:19 37.1 °F 33 °F 29.74 in Calm   5 mph 85% 0.00 in 0 W/m2
18:24 36.9 °F 32.9 °F 29.75 in Calm   5 mph 85% 0.00 in 0 W/m2
18:29 36.8 °F 32.7 °F 29.75 in Calm   5 mph 85% 0.00 in 0 W/m2
18:34 36.6 °F 32.6 °F 29.75 in West 0.3 mph 5 mph 85% 0.00 in 0 W/m2
18:39 36.5 °F 32.4 °F 29.76 in West 0.2 mph 4 mph 85% 0.00 in 0 W/m2
18:44 36.3 °F 32.3 °F 29.76 in West 0.9 mph 4 mph 85% 0.00 in 0 W/m2
18:49 36.2 °F 32.1 °F 29.76 in West 0.4 mph 4 mph 85% 0.00 in 0 W/m2
18:54 36.1 °F 32 °F 29.76 in West 0.2 mph 4 mph 84.9% 0.00 in 0 W/m2
18:59 36 °F 31.6 °F 29.76 in Calm   4 mph 84% 0.00 in 0 W/m2
19:04 35.9 °F 31.6 °F 29.76 in West 0.1 mph 4 mph 84% 0.00 in 0 W/m2
19:09 35.9 °F 31.5 °F 29.77 in WNW 1.6 mph 6 mph 84% 0.00 in 0 W/m2
19:14 35.8 °F 31.4 °F 29.78 in WNW 1.1 mph 6 mph 84% 0.00 in 0 W/m2
19:19 35.7 °F 31.3 °F 29.78 in West 2 mph 10 mph 83.9% 0.00 in 0 W/m2
19:24 35.6 °F 31 °F 29.78 in WNW 1.7 mph 10 mph 83% 0.00 in 0 W/m2
19:29 35.6 °F 30.8 °F 29.78 in WNW 1.1 mph 10 mph 82.4% 0.00 in 0 W/m2
19:34 35.5 °F 30.5 °F 29.78 in West 1 mph 10 mph 82% 0.00 in 0 W/m2
19:39 35.4 °F 30.3 °F 29.78 in West 1 mph 4 mph 81.5% 0.00 in 0 W/m2
19:44 35.3 °F 30.1 °F 29.78 in WNW 1.7 mph 7 mph 81% 0.00 in 0 W/m2
19:49 35.3 °F 29.7 °F 29.78 in WNW 3 mph 10 mph 80% 0.00 in 0 W/m2
19:54 35.2 °F 29.3 °F 29.79 in WNW 4.3 mph 12 mph 78.9% 0.00 in 0 W/m2
19:59 35.3 °F 28.9 °F 29.79 in WNW 6.7 mph 18 mph 77.3% 0.00 in 0 W/m2
20:00 35.3 °F 28.5 °F 29.79 in NW 5 mph 18 mph 76% 0.00 in 0 W/m2
20:09 35.5 °F 28 °F 29.79 in WNW 6.4 mph 14 mph 74% 0.00 in 0 W/m2
20:14 35.5 °F 27.7 °F 29.79 in WNW 5.5 mph 15 mph 73% 0.00 in 0 W/m2
20:19 35.5 °F 27.7 °F 29.79 in WNW 2.4 mph 15 mph 73% 0.00 in 0 W/m2
20:24 35.4 °F 27.7 °F 29.79 in WNW 2.4 mph 15 mph 73% 0.00 in 0 W/m2
20:29 35.3 °F 27.5 °F 29.80 in NW 2.9 mph 15 mph 73% 0.00 in 0 W/m2
20:34 35.1 °F 27.4 °F 29.80 in WNW 1.9 mph 15 mph 73% 0.00 in 0 W/m2
20:39 35 °F 27.2 °F 29.80 in WNW 3.9 mph 14 mph 73% 0.00 in 0 W/m2
20:44 34.8 °F 27.1 °F 29.81 in WNW 4 mph 14 mph 73% 0.00 in 0 W/m2
20:49 34.8 °F 26.8 °F 29.81 in WNW 6.7 mph 16 mph 72.3% 0.00 in 0 W/m2
20:54 34.8 °F 26.7 °F 29.81 in WNW 2.5 mph 16 mph 72% 0.00 in 0 W/m2
20:59 34.7 °F 26.9 °F 29.82 in WNW 4.6 mph 16 mph 72.8% 0.00 in 0 W/m2
21:04 34.6 °F 26.3 °F 29.82 in NW 3 mph 16 mph 71.4% 0.00 in 0 W/m2
21:09 34.5 °F 26.1 °F 29.82 in WNW 3.5 mph 12 mph 71% 0.00 in 0 W/m2
21:14 34.4 °F 26 °F 29.82 in NW 2.7 mph 12 mph 71% 0.00 in 0 W/m2
21:19 34.3 °F 25.9 °F 29.83 in WNW 3 mph 12 mph 71% 0.00 in 0 W/m2
21:24 34.2 °F 25.8 °F 29.83 in WNW 2 mph 12 mph 71% 0.00 in 0 W/m2
21:29 34.1 °F 25.7 °F 29.83 in WNW 3.3 mph 12 mph 71% 0.00 in 0 W/m2
21:34 34 °F 25.6 °F 29.83 in NW 0.2 mph 12 mph 71% 0.00 in 0 W/m2
21:39 33.9 °F 25.5 °F 29.83 in NW 0.5 mph 6 mph 71% 0.00 in 0 W/m2
21:44 33.8 °F 25.4 °F 29.83 in WNW 1 mph 7 mph 71% 0.00 in 0 W/m2
21:49 33.6 °F 25.2 °F 29.83 in NW 3.1 mph 11 mph 71% 0.00 in 0 W/m2
21:54 33.5 °F 25.1 °F 29.83 in WNW 2.8 mph 11 mph 71% 0.00 in 0 W/m2
21:59 33.5 °F 25.1 °F 29.83 in NW 2.6 mph 12 mph 71% 0.00 in 0 W/m2
22:04 33.5 °F 24.9 °F 29.83 in NNW 1.9 mph 12 mph 70.5% 0.00 in 0 W/m2
22:09 33.4 °F 24.7 °F 29.84 in NW 1.7 mph 11 mph 70.1% 0.00 in 0 W/m2
22:14 33.4 °F 24.9 °F 29.84 in NW 0.3 mph 11 mph 70.7% 0.00 in 0 W/m2
22:19 33.3 °F 24.9 °F 29.84 in NNW 0.8 mph 11 mph 71% 0.00 in 0 W/m2
22:24 33.2 °F 24.7 °F 29.84 in NNW 1.2 mph 11 mph 70.7% 0.00 in 0 W/m2
22:29 33 °F 24.6 °F 29.84 in NW 1.3 mph 11 mph 70.9% 0.00 in 0 W/m2
22:34 33 °F 24.3 °F 29.84 in NW 0.6 mph 11 mph 70% 0.00 in 0 W/m2
22:39 32.9 °F 24.4 °F 29.84 in Calm   6 mph 70.5% 0.00 in 0 W/m2
22:44 32.8 °F 24.3 °F 29.85 in NW 1.3 mph 7 mph 70.6% 0.00 in 0 W/m2
22:49 32.8 °F 24.5 °F 29.85 in WNW 1.8 mph 7 mph 71% 0.00 in 0 W/m2
22:54 32.8 °F 24.4 °F 29.85 in WNW 0.5 mph 7 mph 71% 0.00 in 0 W/m2
22:59 32.7 °F 24.4 °F 29.86 in WNW 1.6 mph 7 mph 71% 0.00 in 0 W/m2
23:04 32.7 °F 24.4 °F 29.85 in NW 1 mph 7 mph 71% 0.00 in 0 W/m2
23:09 32.7 °F 24.4 °F 29.86 in NNW 1.5 mph 10 mph 71% 0.00 in 0 W/m2
23:14 32.7 °F 24.4 °F 29.86 in NW 1.8 mph 10 mph 71% 0.00 in 0 W/m2
23:19 32.7 °F 24.4 °F 29.86 in WNW 1 mph 10 mph 71% 0.00 in 0 W/m2
23:24 32.7 °F 24.3 °F 29.86 in WNW 0.4 mph 10 mph 71% 0.00 in 0 W/m2
23:29 32.6 °F 24.2 °F 29.86 in WNW 1.2 mph 10 mph 71% 0.00 in 0 W/m2
23:34 32.5 °F 24.2 °F 29.86 in WNW 1 mph 10 mph 71% 0.00 in 0 W/m2
23:39 32.4 °F 24.1 °F 29.86 in Calm   6 mph 71% 0.00 in 0 W/m2
23:44 32.3 °F 24 °F 29.86 in Calm   6 mph 71% 0.00 in 0 W/m2
23:49 32.2 °F 24.2 °F 29.86 in Calm   6 mph 72% 0.00 in 0 W/m2
23:54 32.1 °F 24.1 °F 29.87 in Calm   6 mph 72% 0.00 in 0 W/m2
23:59 31.9 °F 23.9 °F 29.87 in Calm   6 mph 72% 0.00 in 0 W/m2
Hartford County Weather
Compliments of Weather Underground - 2 mb